sensor_id;sensor_type;location;lat;lon;timestamp;temperature;humidity
32366;DHT22;18837;46.832;16.838;2023-06-26T00:00:27;22.50;75.00
32366;DHT22;18837;46.832;16.838;2023-06-26T00:02:53;22.50;75.20
32366;DHT22;18837;46.832;16.838;2023-06-26T00:05:19;22.50;75.00
32366;DHT22;18837;46.832;16.838;2023-06-26T00:07:54;22.50;75.20
32366;DHT22;18837;46.832;16.838;2023-06-26T00:10:23;22.50;75.10
32366;DHT22;18837;46.832;16.838;2023-06-26T00:12:49;22.50;75.20
32366;DHT22;18837;46.832;16.838;2023-06-26T00:15:14;22.50;75.20
32366;DHT22;18837;46.832;16.838;2023-06-26T00:17:40;22.50;75.20
32366;DHT22;18837;46.832;16.838;2023-06-26T00:20:06;22.50;75.40
32366;DHT22;18837;46.832;16.838;2023-06-26T00:22:32;22.40;75.50
32366;DHT22;18837;46.832;16.838;2023-06-26T00:24:58;22.40;75.30
32366;DHT22;18837;46.832;16.838;2023-06-26T00:27:25;22.40;75.60
32366;DHT22;18837;46.832;16.838;2023-06-26T00:29:51;22.40;75.70
32366;DHT22;18837;46.832;16.838;2023-06-26T00:32:18;22.40;75.50
32366;DHT22;18837;46.832;16.838;2023-06-26T00:34:44;22.40;75.50
32366;DHT22;18837;46.832;16.838;2023-06-26T00:37:11;22.40;75.50
32366;DHT22;18837;46.832;16.838;2023-06-26T00:39:36;22.40;75.70
32366;DHT22;18837;46.832;16.838;2023-06-26T00:42:08;22.40;75.50
32366;DHT22;18837;46.832;16.838;2023-06-26T00:44:43;22.40;75.80
32366;DHT22;18837;46.832;16.838;2023-06-26T00:47:15;22.30;75.70
32366;DHT22;18837;46.832;16.838;2023-06-26T00:49:41;22.40;75.90
32366;DHT22;18837;46.832;16.838;2023-06-26T00:52:07;22.40;75.90
32366;DHT22;18837;46.832;16.838;2023-06-26T00:54:33;22.30;75.60
32366;DHT22;18837;46.832;16.838;2023-06-26T00:56:59;22.30;75.80
32366;DHT22;18837;46.832;16.838;2023-06-26T00:59:25;22.30;75.80
32366;DHT22;18837;46.832;16.838;2023-06-26T01:01:55;22.30;76.00
32366;DHT22;18837;46.832;16.838;2023-06-26T01:04:21;22.30;76.00
32366;DHT22;18837;46.832;16.838;2023-06-26T01:06:50;22.30;76.00
32366;DHT22;18837;46.832;16.838;2023-06-26T01:09:21;22.30;76.00
32366;DHT22;18837;46.832;16.838;2023-06-26T01:11:47;22.20;76.20
32366;DHT22;18837;46.832;16.838;2023-06-26T01:14:13;22.20;76.30
32366;DHT22;18837;46.832;16.838;2023-06-26T01:16:49;22.20;76.00
32366;DHT22;18837;46.832;16.838;2023-06-26T01:19:33;22.20;76.10
32366;DHT22;18837;46.832;16.838;2023-06-26T01:25:03;22.20;76.30
32366;DHT22;18837;46.832;16.838;2023-06-26T01:27:34;22.20;76.40
32366;DHT22;18837;46.832;16.838;2023-06-26T01:30:03;22.20;76.20
32366;DHT22;18837;46.832;16.838;2023-06-26T01:32:31;22.10;76.60
32366;DHT22;18837;46.832;16.838;2023-06-26T01:34:58;22.10;76.50
32366;DHT22;18837;46.832;16.838;2023-06-26T01:37:27;22.10;76.30
32366;DHT22;18837;46.832;16.838;2023-06-26T01:39:53;22.10;76.50
32366;DHT22;18837;46.832;16.838;2023-06-26T01:42:18;22.10;76.60
32366;DHT22;18837;46.832;16.838;2023-06-26T01:44:45;22.10;76.70
32366;DHT22;18837;46.832;16.838;2023-06-26T01:47:16;22.10;76.40
32366;DHT22;18837;46.832;16.838;2023-06-26T01:50:02;22.00;76.50
32366;DHT22;18837;46.832;16.838;2023-06-26T01:53:02;22.10;76.60
32366;DHT22;18837;46.832;16.838;2023-06-26T01:56:06;22.00;75.90
32366;DHT22;18837;46.832;16.838;2023-06-26T01:58:34;22.00;76.70
32366;DHT22;18837;46.832;16.838;2023-06-26T02:01:00;22.00;77.10
32366;DHT22;18837;46.832;16.838;2023-06-26T02:03:26;22.00;77.10
32366;DHT22;18837;46.832;16.838;2023-06-26T02:05:52;22.00;76.70
32366;DHT22;18837;46.832;16.838;2023-06-26T02:08:19;22.00;77.00
32366;DHT22;18837;46.832;16.838;2023-06-26T02:10:53;22.00;76.50
32366;DHT22;18837;46.832;16.838;2023-06-26T02:13:19;21.90;76.50
32366;DHT22;18837;46.832;16.838;2023-06-26T02:15:45;21.90;77.00
32366;DHT22;18837;46.832;16.838;2023-06-26T02:18:10;21.90;76.80
32366;DHT22;18837;46.832;16.838;2023-06-26T02:20:36;21.90;77.10
32366;DHT22;18837;46.832;16.838;2023-06-26T02:23:02;21.90;77.60
32366;DHT22;18837;46.832;16.838;2023-06-26T02:25:40;22.00;77.10
32366;DHT22;18837;46.832;16.838;2023-06-26T02:28:21;21.90;77.10
32366;DHT22;18837;46.832;16.838;2023-06-26T02:30:59;21.80;77.00
32366;DHT22;18837;46.832;16.838;2023-06-26T02:33:25;21.80;77.20
32366;DHT22;18837;46.832;16.838;2023-06-26T02:35:50;21.80;77.10
32366;DHT22;18837;46.832;16.838;2023-06-26T02:38:16;21.80;77.00
32366;DHT22;18837;46.832;16.838;2023-06-26T02:40:42;21.80;77.00
32366;DHT22;18837;46.832;16.838;2023-06-26T02:43:08;21.80;77.00
32366;DHT22;18837;46.832;16.838;2023-06-26T02:45:39;21.80;77.20
32366;DHT22;18837;46.832;16.838;2023-06-26T02:48:04;21.70;77.40
32366;DHT22;18837;46.832;16.838;2023-06-26T02:50:30;21.80;77.70
32366;DHT22;18837;46.832;16.838;2023-06-26T02:52:56;21.70;77.40
32366;DHT22;18837;46.832;16.838;2023-06-26T02:55:21;21.70;77.30
32366;DHT22;18837;46.832;16.838;2023-06-26T02:57:47;21.70;77.50
32366;DHT22;18837;46.832;16.838;2023-06-26T03:00:22;21.70;77.40
32366;DHT22;18837;46.832;16.838;2023-06-26T03:03:07;21.70;77.30
32366;DHT22;18837;46.832;16.838;2023-06-26T03:05:38;21.70;77.60
32366;DHT22;18837;46.832;16.838;2023-06-26T03:08:04;21.70;77.60
32366;DHT22;18837;46.832;16.838;2023-06-26T03:10:30;21.70;77.40
32366;DHT22;18837;46.832;16.838;2023-06-26T03:12:56;21.70;77.50
32366;DHT22;18837;46.832;16.838;2023-06-26T03:15:21;21.60;77.50
32366;DHT22;18837;46.832;16.838;2023-06-26T03:17:47;21.60;77.40
32366;DHT22;18837;46.832;16.838;2023-06-26T03:20:16;21.60;77.70
32366;DHT22;18837;46.832;16.838;2023-06-26T03:22:42;21.60;77.40
32366;DHT22;18837;46.832;16.838;2023-06-26T03:25:08;21.60;77.50
32366;DHT22;18837;46.832;16.838;2023-06-26T03:27:33;21.60;77.80
32366;DHT22;18837;46.832;16.838;2023-06-26T03:29:59;21.60;77.80
32366;DHT22;18837;46.832;16.838;2023-06-26T03:32:25;21.50;77.60
32366;DHT22;18837;46.832;16.838;2023-06-26T03:35:00;21.60;77.60
32366;DHT22;18837;46.832;16.838;2023-06-26T03:37:48;21.50;78.10
32366;DHT22;18837;46.832;16.838;2023-06-26T03:40:18;21.50;77.60
32366;DHT22;18837;46.832;16.838;2023-06-26T03:42:44;21.50;77.50
32366;DHT22;18837;46.832;16.838;2023-06-26T03:45:09;21.50;78.20
32366;DHT22;18837;46.832;16.838;2023-06-26T03:47:35;21.50;78.00
32366;DHT22;18837;46.832;16.838;2023-06-26T03:50:01;21.50;78.20
32366;DHT22;18837;46.832;16.838;2023-06-26T03:52:27;21.50;78.00
32366;DHT22;18837;46.832;16.838;2023-06-26T03:54:52;21.50;78.10
32366;DHT22;18837;46.832;16.838;2023-06-26T03:57:18;21.50;77.90
32366;DHT22;18837;46.832;16.838;2023-06-26T03:59:44;21.40;77.90
32366;DHT22;18837;46.832;16.838;2023-06-26T04:02:09;21.40;78.10
32366;DHT22;18837;46.832;16.838;2023-06-26T04:04:37;21.40;78.10
32366;DHT22;18837;46.832;16.838;2023-06-26T04:07:03;21.40;78.10
32366;DHT22;18837;46.832;16.838;2023-06-26T04:09:29;21.40;78.00
32366;DHT22;18837;46.832;16.838;2023-06-26T04:11:55;21.40;78.00
32366;DHT22;18837;46.832;16.838;2023-06-26T04:14:20;21.40;78.10
32366;DHT22;18837;46.832;16.838;2023-06-26T04:16:46;21.40;78.30
32366;DHT22;18837;46.832;16.838;2023-06-26T04:19:12;21.40;78.20
32366;DHT22;18837;46.832;16.838;2023-06-26T04:21:39;21.40;78.30
32366;DHT22;18837;46.832;16.838;2023-06-26T04:24:14;21.40;77.90
32366;DHT22;18837;46.832;16.838;2023-06-26T04:26:40;21.40;78.40
32366;DHT22;18837;46.832;16.838;2023-06-26T04:29:07;21.40;78.20
32366;DHT22;18837;46.832;16.838;2023-06-26T04:31:32;21.40;78.10
32366;DHT22;18837;46.832;16.838;2023-06-26T04:33:58;21.30;78.00
32366;DHT22;18837;46.832;16.838;2023-06-26T04:36:25;21.40;78.20
32366;DHT22;18837;46.832;16.838;2023-06-26T04:38:54;21.40;78.20
32366;DHT22;18837;46.832;16.838;2023-06-26T04:41:44;21.40;78.40
32366;DHT22;18837;46.832;16.838;2023-06-26T04:44:40;21.30;78.10
32366;DHT22;18837;46.832;16.838;2023-06-26T04:47:07;21.30;78.40
32366;DHT22;18837;46.832;16.838;2023-06-26T04:49:33;21.30;78.40
32366;DHT22;18837;46.832;16.838;2023-06-26T04:51:59;21.30;78.40
32366;DHT22;18837;46.832;16.838;2023-06-26T04:54:25;21.30;78.30
32366;DHT22;18837;46.832;16.838;2023-06-26T04:56:52;21.30;78.70
32366;DHT22;18837;46.832;16.838;2023-06-26T04:59:18;21.30;78.40
32366;DHT22;18837;46.832;16.838;2023-06-26T05:01:44;21.30;78.40
32366;DHT22;18837;46.832;16.838;2023-06-26T05:04:13;21.30;78.70
32366;DHT22;18837;46.832;16.838;2023-06-26T05:06:39;21.30;78.50
32366;DHT22;18837;46.832;16.838;2023-06-26T05:09:05;21.30;78.50
32366;DHT22;18837;46.832;16.838;2023-06-26T05:11:31;21.30;78.60
32366;DHT22;18837;46.832;16.838;2023-06-26T05:14:12;21.30;78.20
32366;DHT22;18837;46.832;16.838;2023-06-26T05:16:39;21.30;78.50
32366;DHT22;18837;46.832;16.838;2023-06-26T05:19:05;21.30;78.30
32366;DHT22;18837;46.832;16.838;2023-06-26T05:21:31;21.30;78.60
32366;DHT22;18837;46.832;16.838;2023-06-26T05:23:57;21.30;78.50
32366;DHT22;18837;46.832;16.838;2023-06-26T05:26:24;21.30;78.70
32366;DHT22;18837;46.832;16.838;2023-06-26T05:28:59;21.30;78.80
32366;DHT22;18837;46.832;16.838;2023-06-26T05:31:50;21.30;78.70
32366;DHT22;18837;46.832;16.838;2023-06-26T05:34:32;21.30;79.40
32366;DHT22;18837;46.832;16.838;2023-06-26T05:36:59;21.30;78.50
32366;DHT22;18837;46.832;16.838;2023-06-26T05:39:26;21.30;78.60
32366;DHT22;18837;46.832;16.838;2023-06-26T05:41:52;21.30;78.80
32366;DHT22;18837;46.832;16.838;2023-06-26T05:44:18;21.30;78.90
32366;DHT22;18837;46.832;16.838;2023-06-26T05:46:45;21.30;78.90
32366;DHT22;18837;46.832;16.838;2023-06-26T05:49:14;21.30;78.80
32366;DHT22;18837;46.832;16.838;2023-06-26T05:51:40;21.30;78.80
32366;DHT22;18837;46.832;16.838;2023-06-26T05:54:06;21.20;78.60
32366;DHT22;18837;46.832;16.838;2023-06-26T05:56:33;21.20;78.70
32366;DHT22;18837;46.832;16.838;2023-06-26T05:58:58;21.30;78.60
32366;DHT22;18837;46.832;16.838;2023-06-26T06:01:25;21.20;78.50
32366;DHT22;18837;46.832;16.838;2023-06-26T06:03:59;21.20;78.50
32366;DHT22;18837;46.832;16.838;2023-06-26T06:06:44;21.20;78.40
32366;DHT22;18837;46.832;16.838;2023-06-26T06:09:21;21.20;78.80
32366;DHT22;18837;46.832;16.838;2023-06-26T06:11:47;21.20;78.90
32366;DHT22;18837;46.832;16.838;2023-06-26T06:14:14;21.20;78.80
32366;DHT22;18837;46.832;16.838;2023-06-26T06:16:40;21.20;78.50
32366;DHT22;18837;46.832;16.838;2023-06-26T06:19:05;21.20;79.40
32366;DHT22;18837;46.832;16.838;2023-06-26T06:21:33;21.20;78.80
32366;DHT22;18837;46.832;16.838;2023-06-26T06:24:05;21.20;79.30
32366;DHT22;18837;46.832;16.838;2023-06-26T06:26:32;21.30;78.70
32366;DHT22;18837;46.832;16.838;2023-06-26T06:28:58;21.20;78.50
32366;DHT22;18837;46.832;16.838;2023-06-26T06:31:23;21.30;78.70
32366;DHT22;18837;46.832;16.838;2023-06-26T06:33:50;21.20;79.00
32366;DHT22;18837;46.832;16.838;2023-06-26T06:36:16;21.30;79.10
32366;DHT22;18837;46.832;16.838;2023-06-26T06:39:12;21.30;78.90
32366;DHT22;18837;46.832;16.838;2023-06-26T06:42:03;21.30;78.80
32366;DHT22;18837;46.832;16.838;2023-06-26T06:44:31;21.20;78.80
32366;DHT22;18837;46.832;16.838;2023-06-26T06:46:57;21.30;79.00
32366;DHT22;18837;46.832;16.838;2023-06-26T06:49:23;21.30;79.10
32366;DHT22;18837;46.832;16.838;2023-06-26T06:51:48;21.30;78.90
32366;DHT22;18837;46.832;16.838;2023-06-26T06:54:16;21.30;78.80
32366;DHT22;18837;46.832;16.838;2023-06-26T06:56:43;21.30;79.00
32366;DHT22;18837;46.832;16.838;2023-06-26T06:59:14;21.30;79.00
32366;DHT22;18837;46.832;16.838;2023-06-26T07:01:40;21.30;79.30
32366;DHT22;18837;46.832;16.838;2023-06-26T07:04:05;21.30;79.00
32366;DHT22;18837;46.832;16.838;2023-06-26T07:06:31;21.30;78.90
32366;DHT22;18837;46.832;16.838;2023-06-26T07:08:57;21.30;79.00
32366;DHT22;18837;46.832;16.838;2023-06-26T07:11:23;21.30;79.10
32366;DHT22;18837;46.832;16.838;2023-06-26T07:14:07;21.40;79.20
32366;DHT22;18837;46.832;16.838;2023-06-26T07:16:54;21.30;78.90
32366;DHT22;18837;46.832;16.838;2023-06-26T07:19:20;21.40;78.70
32366;DHT22;18837;46.832;16.838;2023-06-26T07:21:46;21.40;79.10
32366;DHT22;18837;46.832;16.838;2023-06-26T07:24:12;21.40;78.80
32366;DHT22;18837;46.832;16.838;2023-06-26T07:26:38;21.50;78.90
32366;DHT22;18837;46.832;16.838;2023-06-26T07:29:04;21.50;79.00
32366;DHT22;18837;46.832;16.838;2023-06-26T07:31:30;21.50;78.80
32366;DHT22;18837;46.832;16.838;2023-06-26T07:34:01;21.50;78.80
32366;DHT22;18837;46.832;16.838;2023-06-26T07:39:02;21.60;78.40
32366;DHT22;18837;46.832;16.838;2023-06-26T07:41:28;21.60;78.40
32366;DHT22;18837;46.832;16.838;2023-06-26T07:43:56;21.60;78.30
32366;DHT22;18837;46.832;16.838;2023-06-26T07:46:22;21.60;78.50
32366;DHT22;18837;46.832;16.838;2023-06-26T07:49:00;21.70;78.30
32366;DHT22;18837;46.832;16.838;2023-06-26T07:51:38;21.70;78.30
32366;DHT22;18837;46.832;16.838;2023-06-26T07:54:04;21.70;78.00
32366;DHT22;18837;46.832;16.838;2023-06-26T07:56:30;21.80;77.80
32366;DHT22;18837;46.832;16.838;2023-06-26T07:58:55;21.80;77.90
32366;DHT22;18837;46.832;16.838;2023-06-26T08:01:23;21.90;77.80
32366;DHT22;18837;46.832;16.838;2023-06-26T08:03:52;21.90;77.80
32366;DHT22;18837;46.832;16.838;2023-06-26T08:06:30;22.00;77.80
32366;DHT22;18837;46.832;16.838;2023-06-26T08:11:34;22.00;78.30
32366;DHT22;18837;46.832;16.838;2023-06-26T08:13:59;22.10;78.60
32366;DHT22;18837;46.832;16.838;2023-06-26T08:16:28;22.10;78.60
32366;DHT22;18837;46.832;16.838;2023-06-26T08:18:54;22.20;78.70
32366;DHT22;18837;46.832;16.838;2023-06-26T08:21:19;22.20;78.70
32366;DHT22;18837;46.832;16.838;2023-06-26T08:23:57;22.20;78.80
32366;DHT22;18837;46.832;16.838;2023-06-26T08:28:58;22.30;78.20
32366;DHT22;18837;46.832;16.838;2023-06-26T08:31:24;22.40;77.60
32366;DHT22;18837;46.832;16.838;2023-06-26T08:33:53;22.50;78.30
32366;DHT22;18837;46.832;16.838;2023-06-26T08:36:23;22.50;78.80
32366;DHT22;18837;46.832;16.838;2023-06-26T08:38:49;22.60;78.50
32366;DHT22;18837;46.832;16.838;2023-06-26T08:49:53;22.70;78.20
32366;DHT22;18837;46.832;16.838;2023-06-26T08:52:11;22.80;79.10
32366;DHT22;18837;46.832;16.838;2023-06-26T08:54:42;22.90;79.40
32366;DHT22;18837;46.832;16.838;2023-06-26T08:57:18;23.00;78.90
32366;DHT22;18837;46.832;16.838;2023-06-26T08:59:45;23.00;78.10
32366;DHT22;18837;46.832;16.838;2023-06-26T09:08:15;23.20;77.50
32366;DHT22;18837;46.832;16.838;2023-06-26T09:10:40;23.30;77.00
32366;DHT22;18837;46.832;16.838;2023-06-26T09:13:25;23.30;77.10
32366;DHT22;18837;46.832;16.838;2023-06-26T09:16:09;23.40;77.20
32366;DHT22;18837;46.832;16.838;2023-06-26T09:18:35;23.40;76.40
32366;DHT22;18837;46.832;16.838;2023-06-26T09:21:06;23.40;76.00
32366;DHT22;18837;46.832;16.838;2023-06-26T09:23:34;23.50;78.40
32366;DHT22;18837;46.832;16.838;2023-06-26T09:26:06;23.60;81.60
32366;DHT22;18837;46.832;16.838;2023-06-26T09:28:35;23.60;79.60
32366;DHT22;18837;46.832;16.838;2023-06-26T09:31:17;23.60;77.30
32366;DHT22;18837;46.832;16.838;2023-06-26T09:33:43;23.70;75.80
32366;DHT22;18837;46.832;16.838;2023-06-26T09:36:20;23.80;75.20
32366;DHT22;18837;46.832;16.838;2023-06-26T09:38:47;23.80;76.40
32366;DHT22;18837;46.832;16.838;2023-06-26T09:41:19;23.90;75.50
32366;DHT22;18837;46.832;16.838;2023-06-26T09:43:49;24.00;75.60
32366;DHT22;18837;46.832;16.838;2023-06-26T09:46:34;24.00;75.90
32366;DHT22;18837;46.832;16.838;2023-06-26T09:49:08;24.00;76.40
32366;DHT22;18837;46.832;16.838;2023-06-26T09:51:39;24.00;75.80
32366;DHT22;18837;46.832;16.838;2023-06-26T09:54:05;24.10;75.80
32366;DHT22;18837;46.832;16.838;2023-06-26T09:56:32;24.10;74.60
32366;DHT22;18837;46.832;16.838;2023-06-26T09:59:05;24.10;75.20
32366;DHT22;18837;46.832;16.838;2023-06-26T10:01:32;24.20;75.00
32366;DHT22;18837;46.832;16.838;2023-06-26T10:03:58;24.20;78.00
32366;DHT22;18837;46.832;16.838;2023-06-26T10:06:37;24.30;75.80
32366;DHT22;18837;46.832;16.838;2023-06-26T10:09:05;24.30;75.40
32366;DHT22;18837;46.832;16.838;2023-06-26T10:11:41;24.30;74.50
32366;DHT22;18837;46.832;16.838;2023-06-26T10:14:11;24.40;74.30
32366;DHT22;18837;46.832;16.838;2023-06-26T10:16:39;24.40;73.40
32366;DHT22;18837;46.832;16.838;2023-06-26T10:19:08;24.40;73.70
32366;DHT22;18837;46.832;16.838;2023-06-26T10:21:41;24.50;73.50
32366;DHT22;18837;46.832;16.838;2023-06-26T10:24:12;24.50;72.40
32366;DHT22;18837;46.832;16.838;2023-06-26T10:26:42;24.50;72.40
32366;DHT22;18837;46.832;16.838;2023-06-26T10:29:10;24.50;72.30
32366;DHT22;18837;46.832;16.838;2023-06-26T10:31:37;24.60;72.40
32366;DHT22;18837;46.832;16.838;2023-06-26T10:34:03;24.60;73.30
32366;DHT22;18837;46.832;16.838;2023-06-26T10:36:31;24.70;72.90
32366;DHT22;18837;46.832;16.838;2023-06-26T10:39:05;24.70;73.30
32366;DHT22;18837;46.832;16.838;2023-06-26T10:41:39;24.70;73.40
32366;DHT22;18837;46.832;16.838;2023-06-26T10:44:09;24.70;73.00
32366;DHT22;18837;46.832;16.838;2023-06-26T10:46:51;24.70;72.70
32366;DHT22;18837;46.832;16.838;2023-06-26T10:49:23;24.80;72.40
32366;DHT22;18837;46.832;16.838;2023-06-26T10:51:51;24.80;72.40
32366;DHT22;18837;46.832;16.838;2023-06-26T10:54:18;24.80;73.00
32366;DHT22;18837;46.832;16.838;2023-06-26T10:56:47;24.90;72.90
32366;DHT22;18837;46.832;16.838;2023-06-26T11:00:07;24.90;73.00
32366;DHT22;18837;46.832;16.838;2023-06-26T11:02:50;25.00;72.90
32366;DHT22;18837;46.832;16.838;2023-06-26T11:05:32;24.90;71.90
32366;DHT22;18837;46.832;16.838;2023-06-26T11:08:09;25.00;73.10
32366;DHT22;18837;46.832;16.838;2023-06-26T11:10:51;25.00;71.20
32366;DHT22;18837;46.832;16.838;2023-06-26T11:13:19;25.10;71.70
32366;DHT22;18837;46.832;16.838;2023-06-26T11:15:50;25.10;71.70
32366;DHT22;18837;46.832;16.838;2023-06-26T11:18:16;25.10;73.10
32366;DHT22;18837;46.832;16.838;2023-06-26T11:20:42;25.20;72.30
32366;DHT22;18837;46.832;16.838;2023-06-26T11:23:08;25.10;72.60
32366;DHT22;18837;46.832;16.838;2023-06-26T11:25:35;25.10;72.00
32366;DHT22;18837;46.832;16.838;2023-06-26T11:28:05;25.20;72.00
32366;DHT22;18837;46.832;16.838;2023-06-26T11:33:51;25.20;70.80
32366;DHT22;18837;46.832;16.838;2023-06-26T11:36:17;25.30;67.80
32366;DHT22;18837;46.832;16.838;2023-06-26T11:38:42;25.30;67.20
32366;DHT22;18837;46.832;16.838;2023-06-26T11:41:08;25.40;68.40
32366;DHT22;18837;46.832;16.838;2023-06-26T11:43:34;25.40;69.00
32366;DHT22;18837;46.832;16.838;2023-06-26T11:46:00;25.50;68.00
32366;DHT22;18837;46.832;16.838;2023-06-26T11:48:44;25.50;67.80
32366;DHT22;18837;46.832;16.838;2023-06-26T11:51:13;25.50;67.80
32366;DHT22;18837;46.832;16.838;2023-06-26T11:53:45;25.50;68.40
32366;DHT22;18837;46.832;16.838;2023-06-26T11:56:27;25.50;69.90
32366;DHT22;18837;46.832;16.838;2023-06-26T11:59:00;25.60;68.30
32366;DHT22;18837;46.832;16.838;2023-06-26T12:01:37;25.60;67.70
32366;DHT22;18837;46.832;16.838;2023-06-26T12:04:22;25.60;68.80
32366;DHT22;18837;46.832;16.838;2023-06-26T12:07:14;25.60;67.90
32366;DHT22;18837;46.832;16.838;2023-06-26T12:09:56;25.70;66.80
32366;DHT22;18837;46.832;16.838;2023-06-26T12:12:23;25.70;68.60
32366;DHT22;18837;46.832;16.838;2023-06-26T12:14:51;25.70;68.90
32366;DHT22;18837;46.832;16.838;2023-06-26T12:17:17;25.70;69.00
32366;DHT22;18837;46.832;16.838;2023-06-26T12:19:47;25.70;68.70
32366;DHT22;18837;46.832;16.838;2023-06-26T12:22:13;25.70;69.10
32366;DHT22;18837;46.832;16.838;2023-06-26T12:24:43;25.70;67.10
32366;DHT22;18837;46.832;16.838;2023-06-26T12:27:14;25.70;67.60
32366;DHT22;18837;46.832;16.838;2023-06-26T12:29:46;25.80;66.40
32366;DHT22;18837;46.832;16.838;2023-06-26T12:32:14;25.80;67.30
32366;DHT22;18837;46.832;16.838;2023-06-26T12:34:40;25.80;67.90
32366;DHT22;18837;46.832;16.838;2023-06-26T12:37:08;25.90;70.00
32366;DHT22;18837;46.832;16.838;2023-06-26T12:39:58;25.90;70.80
32366;DHT22;18837;46.832;16.838;2023-06-26T12:42:48;26.00;68.60
32366;DHT22;18837;46.832;16.838;2023-06-26T12:45:14;26.00;68.10
32366;DHT22;18837;46.832;16.838;2023-06-26T12:47:40;26.00;68.20
32366;DHT22;18837;46.832;16.838;2023-06-26T12:50:07;25.90;66.50
32366;DHT22;18837;46.832;16.838;2023-06-26T12:52:33;25.90;65.90
32366;DHT22;18837;46.832;16.838;2023-06-26T12:54:59;26.00;65.40
32366;DHT22;18837;46.832;16.838;2023-06-26T12:57:25;25.90;66.40
32366;DHT22;18837;46.832;16.838;2023-06-26T12:59:57;26.00;65.20
32366;DHT22;18837;46.832;16.838;2023-06-26T13:02:23;26.00;66.10
32366;DHT22;18837;46.832;16.838;2023-06-26T13:04:48;26.00;65.40
32366;DHT22;18837;46.832;16.838;2023-06-26T13:07:14;26.00;66.10
32366;DHT22;18837;46.832;16.838;2023-06-26T13:09:40;26.00;65.50
32366;DHT22;18837;46.832;16.838;2023-06-26T13:12:07;26.10;65.80
32366;DHT22;18837;46.832;16.838;2023-06-26T13:14:51;26.10;65.40
32366;DHT22;18837;46.832;16.838;2023-06-26T13:17:29;26.10;65.00
32366;DHT22;18837;46.832;16.838;2023-06-26T13:19:54;26.10;65.50
32366;DHT22;18837;46.832;16.838;2023-06-26T13:22:20;26.20;65.90
32366;DHT22;18837;46.832;16.838;2023-06-26T13:24:46;26.20;65.30
32366;DHT22;18837;46.832;16.838;2023-06-26T13:27:12;26.30;65.10
32366;DHT22;18837;46.832;16.838;2023-06-26T13:29:38;26.30;66.20
32366;DHT22;18837;46.832;16.838;2023-06-26T13:32:13;26.40;66.20
32366;DHT22;18837;46.832;16.838;2023-06-26T13:34:39;26.40;67.10
32366;DHT22;18837;46.832;16.838;2023-06-26T13:37:05;26.50;66.40
32366;DHT22;18837;46.832;16.838;2023-06-26T13:39:31;26.50;66.40
32366;DHT22;18837;46.832;16.838;2023-06-26T13:41:57;26.50;64.80
32366;DHT22;18837;46.832;16.838;2023-06-26T13:44:23;26.50;65.60
32366;DHT22;18837;46.832;16.838;2023-06-26T13:46:49;26.50;65.60
32366;DHT22;18837;46.832;16.838;2023-06-26T13:49:26;26.50;66.80
32366;DHT22;18837;46.832;16.838;2023-06-26T13:52:05;26.50;65.50
32366;DHT22;18837;46.832;16.838;2023-06-26T13:54:34;26.50;65.10
32366;DHT22;18837;46.832;16.838;2023-06-26T13:57:01;26.50;67.80
32366;DHT22;18837;46.832;16.838;2023-06-26T13:59:28;26.60;66.40
32366;DHT22;18837;46.832;16.838;2023-06-26T14:01:54;26.60;64.90
32366;DHT22;18837;46.832;16.838;2023-06-26T14:04:20;26.70;63.90
32366;DHT22;18837;46.832;16.838;2023-06-26T14:06:52;26.70;65.10
32366;DHT22;18837;46.832;16.838;2023-06-26T14:09:19;26.70;65.50
32366;DHT22;18837;46.832;16.838;2023-06-26T14:11:44;26.80;66.00
32366;DHT22;18837;46.832;16.838;2023-06-26T14:14:10;26.90;63.90
32366;DHT22;18837;46.832;16.838;2023-06-26T14:16:36;26.90;66.40
32366;DHT22;18837;46.832;16.838;2023-06-26T14:19:02;26.90;65.30
32366;DHT22;18837;46.832;16.838;2023-06-26T14:21:28;26.90;66.70
32366;DHT22;18837;46.832;16.838;2023-06-26T14:23:59;27.00;66.10
32366;DHT22;18837;46.832;16.838;2023-06-26T14:26:26;27.00;68.00
32366;DHT22;18837;46.832;16.838;2023-06-26T14:28:52;27.00;66.90
32366;DHT22;18837;46.832;16.838;2023-06-26T14:31:18;27.00;66.30
32366;DHT22;18837;46.832;16.838;2023-06-26T14:33:43;27.10;65.10
32366;DHT22;18837;46.832;16.838;2023-06-26T14:36:09;27.10;67.90
32366;DHT22;18837;46.832;16.838;2023-06-26T14:38:35;27.10;66.40
32366;DHT22;18837;46.832;16.838;2023-06-26T14:41:00;27.10;66.80
32366;DHT22;18837;46.832;16.838;2023-06-26T14:43:26;27.10;67.40
32366;DHT22;18837;46.832;16.838;2023-06-26T14:45:52;27.20;66.50
32366;DHT22;18837;46.832;16.838;2023-06-26T14:48:17;27.20;64.90
32366;DHT22;18837;46.832;16.838;2023-06-26T14:50:44;27.30;63.50
32366;DHT22;18837;46.832;16.838;2023-06-26T14:53:11;27.30;64.20
32366;DHT22;18837;46.832;16.838;2023-06-26T14:55:37;27.40;62.90
32366;DHT22;18837;46.832;16.838;2023-06-26T14:58:03;27.50;63.50
32366;DHT22;18837;46.832;16.838;2023-06-26T15:03:48;27.70;63.30
32366;DHT22;18837;46.832;16.838;2023-06-26T15:06:15;27.70;64.30
32366;DHT22;18837;46.832;16.838;2023-06-26T15:08:40;27.70;64.80
32366;DHT22;18837;46.832;16.838;2023-06-26T15:11:06;27.60;66.10
32366;DHT22;18837;46.832;16.838;2023-06-26T15:13:32;27.60;64.10
32366;DHT22;18837;46.832;16.838;2023-06-26T15:16:07;27.60;63.60
32366;DHT22;18837;46.832;16.838;2023-06-26T15:18:32;27.60;64.00
32366;DHT22;18837;46.832;16.838;2023-06-26T15:20:58;27.60;64.30
32366;DHT22;18837;46.832;16.838;2023-06-26T15:23:24;27.70;63.50
32366;DHT22;18837;46.832;16.838;2023-06-26T15:25:50;27.70;63.70
32366;DHT22;18837;46.832;16.838;2023-06-26T15:28:15;27.70;64.50
32366;DHT22;18837;46.832;16.838;2023-06-26T15:30:41;27.70;64.10
32366;DHT22;18837;46.832;16.838;2023-06-26T15:33:12;27.70;63.40
32366;DHT22;18837;46.832;16.838;2023-06-26T15:35:40;27.70;63.60
32366;DHT22;18837;46.832;16.838;2023-06-26T15:38:05;27.60;63.60
32366;DHT22;18837;46.832;16.838;2023-06-26T15:40:31;27.60;63.50
32366;DHT22;18837;46.832;16.838;2023-06-26T15:42:57;27.50;62.20
32366;DHT22;18837;46.832;16.838;2023-06-26T15:45:23;27.40;62.50
32366;DHT22;18837;46.832;16.838;2023-06-26T15:47:55;27.30;62.40
32366;DHT22;18837;46.832;16.838;2023-06-26T15:50:30;27.30;63.10
32366;DHT22;18837;46.832;16.838;2023-06-26T15:52:56;27.20;63.70
32366;DHT22;18837;46.832;16.838;2023-06-26T15:55:21;27.20;64.10
32366;DHT22;18837;46.832;16.838;2023-06-26T15:57:47;27.10;64.80
32366;DHT22;18837;46.832;16.838;2023-06-26T16:00:13;27.10;64.90